KBRY/BRY METAR and TAF weather

Enter ICAO airport designator
Station Type Date Time Source
KBRY METAR 2018/01/22 20:15 UTC NOAA

KBRY 222015Z AUTO 18013G18KT 10SM SCT027 SCT034 SCT042 14/10 A2971 RMK AO1


Station Type Date Time Source
KBRY Decoded METAR 2018/01/22 20:15 UTC NOAA

Station name not available
Jan 22, 2018 - 03:15 PM EST / 2018.01.22 2015 UTC
Wind: from the S (180 degrees) at 15 MPH (13 KT) gusting to 21 MPH (18 KT):0
Visibility: 10 mile(s):0
Sky conditions: partly cloudy
Temperature: 57 F (14 C)
Dew Point: 50 F (10 C)
Relative Humidity: 76%
Pressure (altimeter): 29.71 in. Hg (1006 hPa)
ob: KBRY 222015Z AUTO 18013G18KT 10SM SCT027 SCT034 SCT042 14/10 A2971 RMK AO1
cycle: 20

Station Type Date Time Source
KBRY TAF UTC NOAA

Error!


Example: see airport list